sensor_id;sensor_type;location;lat;lon;timestamp;temperature;humidity
21085;DHT22;34247;50.064;19.970;2022-09-29T00:00:10;29.70;32.40
21085;DHT22;34247;50.064;19.970;2022-09-29T00:01:15;29.60;32.30
21085;DHT22;34247;50.064;19.970;2022-09-29T00:02:19;29.60;32.30
21085;DHT22;34247;50.064;19.970;2022-09-29T00:03:23;29.60;32.40
21085;DHT22;34247;50.064;19.970;2022-09-29T00:04:27;29.60;32.30
21085;DHT22;34247;50.064;19.970;2022-09-29T00:05:33;29.60;32.40
21085;DHT22;34247;50.064;19.970;2022-09-29T00:06:41;29.60;32.30
21085;DHT22;34247;50.064;19.970;2022-09-29T00:07:48;29.60;32.40
21085;DHT22;34247;50.064;19.970;2022-09-29T00:08:51;29.70;32.50
21085;DHT22;34247;50.064;19.970;2022-09-29T00:09:55;29.70;32.50
21085;DHT22;34247;50.064;19.970;2022-09-29T00:10:59;29.60;32.40
21085;DHT22;34247;50.064;19.970;2022-09-29T00:12:03;29.60;32.40
21085;DHT22;34247;50.064;19.970;2022-09-29T00:13:09;29.60;32.50
21085;DHT22;34247;50.064;19.970;2022-09-29T00:14:17;29.60;33.10
21085;DHT22;34247;50.064;19.970;2022-09-29T00:15:21;29.60;32.40
21085;DHT22;34247;50.064;19.970;2022-09-29T00:16:26;29.60;32.40
21085;DHT22;34247;50.064;19.970;2022-09-29T00:17:30;29.70;32.60
21085;DHT22;34247;50.064;19.970;2022-09-29T00:18:34;29.60;32.50
21085;DHT22;34247;50.064;19.970;2022-09-29T00:19:40;29.60;32.60
21085;DHT22;34247;50.064;19.970;2022-09-29T00:21:05;29.60;32.60
21085;DHT22;34247;50.064;19.970;2022-09-29T00:22:13;29.60;32.50
21085;DHT22;34247;50.064;19.970;2022-09-29T00:23:19;29.60;32.60
21085;DHT22;34247;50.064;19.970;2022-09-29T00:24:28;29.60;32.60
21085;DHT22;34247;50.064;19.970;2022-09-29T00:25:34;29.60;32.60
21085;DHT22;34247;50.064;19.970;2022-09-29T00:26:39;29.60;32.60
21085;DHT22;34247;50.064;19.970;2022-09-29T00:27:43;29.60;32.60
21085;DHT22;34247;50.064;19.970;2022-09-29T00:28:50;29.60;32.50
21085;DHT22;34247;50.064;19.970;2022-09-29T00:29:58;29.60;32.60
21085;DHT22;34247;50.064;19.970;2022-09-29T00:31:03;29.60;32.60
21085;DHT22;34247;50.064;19.970;2022-09-29T00:32:12;29.60;32.60
21085;DHT22;34247;50.064;19.970;2022-09-29T00:33:20;29.60;32.50
21085;DHT22;34247;50.064;19.970;2022-09-29T00:34:25;29.60;32.50
21085;DHT22;34247;50.064;19.970;2022-09-29T00:35:32;29.60;32.50
21085;DHT22;34247;50.064;19.970;2022-09-29T00:36:37;29.60;32.40
21085;DHT22;34247;50.064;19.970;2022-09-29T00:37:52;29.60;32.40
21085;DHT22;34247;50.064;19.970;2022-09-29T00:38:58;29.60;32.50
21085;DHT22;34247;50.064;19.970;2022-09-29T00:40:07;29.60;32.50
21085;DHT22;34247;50.064;19.970;2022-09-29T00:41:16;29.60;32.50
21085;DHT22;34247;50.064;19.970;2022-09-29T00:42:22;29.60;32.50
21085;DHT22;34247;50.064;19.970;2022-09-29T00:43:47;29.60;32.40
21085;DHT22;34247;50.064;19.970;2022-09-29T00:45:05;29.60;32.40
21085;DHT22;34247;50.064;19.970;2022-09-29T00:46:10;29.60;32.50
21085;DHT22;34247;50.064;19.970;2022-09-29T00:47:17;29.60;32.50
21085;DHT22;34247;50.064;19.970;2022-09-29T00:48:30;29.60;32.40
21085;DHT22;34247;50.064;19.970;2022-09-29T00:49:44;29.60;32.30
21085;DHT22;34247;50.064;19.970;2022-09-29T01:09:03;29.50;31.70
21085;DHT22;34247;50.064;19.970;2022-09-29T01:10:12;29.50;31.60
21085;DHT22;34247;50.064;19.970;2022-09-29T01:11:21;29.50;31.40
21085;DHT22;34247;50.064;19.970;2022-09-29T01:12:25;29.40;31.40
21085;DHT22;34247;50.064;19.970;2022-09-29T01:13:31;29.50;31.50
21085;DHT22;34247;50.064;19.970;2022-09-29T01:14:37;29.40;31.40
21085;DHT22;34247;50.064;19.970;2022-09-29T01:15:44;29.40;31.50
21085;DHT22;34247;50.064;19.970;2022-09-29T01:16:50;29.40;31.30
21085;DHT22;34247;50.064;19.970;2022-09-29T01:17:54;29.40;31.30
21085;DHT22;34247;50.064;19.970;2022-09-29T01:19:06;29.40;31.40
21085;DHT22;34247;50.064;19.970;2022-09-29T01:20:20;29.40;32.10
21085;DHT22;34247;50.064;19.970;2022-09-29T01:21:33;29.40;31.50
21085;DHT22;34247;50.064;19.970;2022-09-29T01:31:55;29.30;30.80
21085;DHT22;34247;50.064;19.970;2022-09-29T01:33:21;29.30;30.80
21085;DHT22;34247;50.064;19.970;2022-09-29T01:39:40;29.30;30.80
21085;DHT22;34247;50.064;19.970;2022-09-29T01:42:24;29.30;30.80
21085;DHT22;34247;50.064;19.970;2022-09-29T01:43:37;29.30;30.90
21085;DHT22;34247;50.064;19.970;2022-09-29T01:45:01;29.30;30.70
21085;DHT22;34247;50.064;19.970;2022-09-29T01:46:47;29.30;30.80
21085;DHT22;34247;50.064;19.970;2022-09-29T01:48:01;29.30;30.70
21085;DHT22;34247;50.064;19.970;2022-09-29T01:49:08;29.20;30.70
21085;DHT22;34247;50.064;19.970;2022-09-29T01:50:28;29.20;30.70
21085;DHT22;34247;50.064;19.970;2022-09-29T01:51:41;29.20;30.80
21085;DHT22;34247;50.064;19.970;2022-09-29T01:53:43;29.20;31.60
21085;DHT22;34247;50.064;19.970;2022-09-29T01:54:42;29.20;31.00
21085;DHT22;34247;50.064;19.970;2022-09-29T01:55:53;29.20;31.00
21085;DHT22;34247;50.064;19.970;2022-09-29T02:00:13;29.20;31.10
21085;DHT22;34247;50.064;19.970;2022-09-29T02:01:21;29.20;31.10
21085;DHT22;34247;50.064;19.970;2022-09-29T02:02:36;29.20;31.10
21085;DHT22;34247;50.064;19.970;2022-09-29T02:03:53;29.20;31.20
21085;DHT22;34247;50.064;19.970;2022-09-29T02:05:19;29.20;31.20
21085;DHT22;34247;50.064;19.970;2022-09-29T02:06:41;29.20;31.20
21085;DHT22;34247;50.064;19.970;2022-09-29T02:07:57;29.20;31.20
21085;DHT22;34247;50.064;19.970;2022-09-29T02:09:25;29.20;31.20
21085;DHT22;34247;50.064;19.970;2022-09-29T02:10:40;29.20;31.30
21085;DHT22;34247;50.064;19.970;2022-09-29T02:11:51;29.20;31.20
21085;DHT22;34247;50.064;19.970;2022-09-29T02:12:59;29.20;31.10
21085;DHT22;34247;50.064;19.970;2022-09-29T02:14:24;29.20;31.10
21085;DHT22;34247;50.064;19.970;2022-09-29T02:15:36;29.20;31.10
21085;DHT22;34247;50.064;19.970;2022-09-29T02:16:51;29.20;31.70
21085;DHT22;34247;50.064;19.970;2022-09-29T02:18:20;29.20;31.10
21085;DHT22;34247;50.064;19.970;2022-09-29T02:19:29;29.20;31.10
21085;DHT22;34247;50.064;19.970;2022-09-29T02:20:36;29.20;31.00
21085;DHT22;34247;50.064;19.970;2022-09-29T02:21:40;29.20;31.00
21085;DHT22;34247;50.064;19.970;2022-09-29T02:22:45;29.20;31.00
21085;DHT22;34247;50.064;19.970;2022-09-29T02:23:52;29.20;31.70
21085;DHT22;34247;50.064;19.970;2022-09-29T02:25:00;29.20;31.10
21085;DHT22;34247;50.064;19.970;2022-09-29T02:26:06;29.20;31.10
21085;DHT22;34247;50.064;19.970;2022-09-29T02:27:10;29.20;31.10
21085;DHT22;34247;50.064;19.970;2022-09-29T02:28:25;29.20;31.10
21085;DHT22;34247;50.064;19.970;2022-09-29T02:29:31;29.20;31.10
21085;DHT22;34247;50.064;19.970;2022-09-29T02:30:39;29.20;31.10
21085;DHT22;34247;50.064;19.970;2022-09-29T02:31:45;29.20;31.10
21085;DHT22;34247;50.064;19.970;2022-09-29T02:32:50;29.20;31.10
21085;DHT22;34247;50.064;19.970;2022-09-29T02:33:54;29.20;31.10
21085;DHT22;34247;50.064;19.970;2022-09-29T02:34:58;29.20;31.10
21085;DHT22;34247;50.064;19.970;2022-09-29T02:36:14;29.20;31.00
21085;DHT22;34247;50.064;19.970;2022-09-29T02:38:03;29.20;31.10
21085;DHT22;34247;50.064;19.970;2022-09-29T02:41:05;29.20;31.00
21085;DHT22;34247;50.064;19.970;2022-09-29T02:42:56;29.20;31.00
21085;DHT22;34247;50.064;19.970;2022-09-29T02:53:35;29.20;31.10
21085;DHT22;34247;50.064;19.970;2022-09-29T02:55:07;29.20;31.00
21085;DHT22;34247;50.064;19.970;2022-09-29T02:56:45;29.10;30.90
21085;DHT22;34247;50.064;19.970;2022-09-29T02:59:23;29.10;30.90
21085;DHT22;34247;50.064;19.970;2022-09-29T03:00:33;29.00;30.90
21085;DHT22;34247;50.064;19.970;2022-09-29T03:01:48;29.00;30.90
21085;DHT22;34247;50.064;19.970;2022-09-29T03:02:53;29.00;30.80
21085;DHT22;34247;50.064;19.970;2022-09-29T03:03:57;29.00;30.80
21085;DHT22;34247;50.064;19.970;2022-09-29T03:05:09;29.00;30.80
21085;DHT22;34247;50.064;19.970;2022-09-29T03:06:34;29.00;30.80
21085;DHT22;34247;50.064;19.970;2022-09-29T03:07:38;29.00;30.80
21085;DHT22;34247;50.064;19.970;2022-09-29T03:08:42;29.00;30.80
21085;DHT22;34247;50.064;19.970;2022-09-29T03:09:46;29.00;30.80
21085;DHT22;34247;50.064;19.970;2022-09-29T03:10:49;29.00;30.80
21085;DHT22;34247;50.064;19.970;2022-09-29T03:11:55;28.90;30.80
21085;DHT22;34247;50.064;19.970;2022-09-29T03:12:59;28.90;30.80
21085;DHT22;34247;50.064;19.970;2022-09-29T03:14:03;29.00;30.80
21085;DHT22;34247;50.064;19.970;2022-09-29T03:15:09;28.90;30.90
21085;DHT22;34247;50.064;19.970;2022-09-29T03:16:15;29.00;30.90
21085;DHT22;34247;50.064;19.970;2022-09-29T03:17:18;28.90;30.80
21085;DHT22;34247;50.064;19.970;2022-09-29T03:18:22;28.90;30.90
21085;DHT22;34247;50.064;19.970;2022-09-29T03:19:26;28.90;30.90
21085;DHT22;34247;50.064;19.970;2022-09-29T03:20:30;28.90;30.80
21085;DHT22;34247;50.064;19.970;2022-09-29T03:21:34;28.90;30.90
21085;DHT22;34247;50.064;19.970;2022-09-29T03:22:38;28.90;30.80
21085;DHT22;34247;50.064;19.970;2022-09-29T03:23:42;28.90;30.80
21085;DHT22;34247;50.064;19.970;2022-09-29T03:24:47;28.90;30.90
21085;DHT22;34247;50.064;19.970;2022-09-29T03:25:51;28.90;30.90
21085;DHT22;34247;50.064;19.970;2022-09-29T03:26:55;28.90;30.90
21085;DHT22;34247;50.064;19.970;2022-09-29T03:27:58;28.90;30.80
21085;DHT22;34247;50.064;19.970;2022-09-29T03:29:02;28.90;30.80
21085;DHT22;34247;50.064;19.970;2022-09-29T03:30:07;28.90;30.90
21085;DHT22;34247;50.064;19.970;2022-09-29T03:31:11;28.90;31.00
21085;DHT22;34247;50.064;19.970;2022-09-29T03:32:15;28.90;30.90
21085;DHT22;34247;50.064;19.970;2022-09-29T03:33:20;28.90;30.90
21085;DHT22;34247;50.064;19.970;2022-09-29T03:34:24;28.90;30.90
21085;DHT22;34247;50.064;19.970;2022-09-29T03:35:28;28.90;30.90
21085;DHT22;34247;50.064;19.970;2022-09-29T03:36:32;28.90;30.80
21085;DHT22;34247;50.064;19.970;2022-09-29T03:37:36;28.80;30.70
21085;DHT22;34247;50.064;19.970;2022-09-29T03:38:40;28.80;30.70
21085;DHT22;34247;50.064;19.970;2022-09-29T03:39:46;28.80;30.70
21085;DHT22;34247;50.064;19.970;2022-09-29T03:40:50;28.80;30.60
21085;DHT22;34247;50.064;19.970;2022-09-29T03:41:54;28.80;30.50
21085;DHT22;34247;50.064;19.970;2022-09-29T03:42:58;28.80;30.50
21085;DHT22;34247;50.064;19.970;2022-09-29T03:44:02;28.80;30.50
21085;DHT22;34247;50.064;19.970;2022-09-29T03:45:07;28.80;30.50
21085;DHT22;34247;50.064;19.970;2022-09-29T03:46:11;28.80;30.40
21085;DHT22;34247;50.064;19.970;2022-09-29T03:47:15;28.80;30.40
21085;DHT22;34247;50.064;19.970;2022-09-29T03:48:44;28.80;30.40
21085;DHT22;34247;50.064;19.970;2022-09-29T03:49:48;28.80;30.40
21085;DHT22;34247;50.064;19.970;2022-09-29T03:50:52;28.80;30.30
21085;DHT22;34247;50.064;19.970;2022-09-29T03:51:57;28.80;30.30
21085;DHT22;34247;50.064;19.970;2022-09-29T03:53:02;28.80;30.30
21085;DHT22;34247;50.064;19.970;2022-09-29T03:54:07;28.70;30.20
21085;DHT22;34247;50.064;19.970;2022-09-29T03:55:10;28.70;30.30
21085;DHT22;34247;50.064;19.970;2022-09-29T03:56:14;28.70;30.30
21085;DHT22;34247;50.064;19.970;2022-09-29T03:57:18;28.70;30.30
21085;DHT22;34247;50.064;19.970;2022-09-29T03:58:22;28.70;30.30
21085;DHT22;34247;50.064;19.970;2022-09-29T03:59:26;28.70;30.20
21085;DHT22;34247;50.064;19.970;2022-09-29T04:00:29;28.70;30.20
21085;DHT22;34247;50.064;19.970;2022-09-29T04:01:34;28.70;30.30
21085;DHT22;34247;50.064;19.970;2022-09-29T04:02:38;28.70;30.30
21085;DHT22;34247;50.064;19.970;2022-09-29T04:03:42;28.70;30.30
21085;DHT22;34247;50.064;19.970;2022-09-29T04:04:46;28.70;31.00
21085;DHT22;34247;50.064;19.970;2022-09-29T04:05:50;28.70;30.30
21085;DHT22;34247;50.064;19.970;2022-09-29T04:06:53;28.70;30.30
21085;DHT22;34247;50.064;19.970;2022-09-29T04:07:57;28.70;30.30
21085;DHT22;34247;50.064;19.970;2022-09-29T04:09:01;28.70;30.30
21085;DHT22;34247;50.064;19.970;2022-09-29T04:10:06;28.70;30.40
21085;DHT22;34247;50.064;19.970;2022-09-29T04:11:09;28.70;30.40
21085;DHT22;34247;50.064;19.970;2022-09-29T04:12:13;28.70;30.50
21085;DHT22;34247;50.064;19.970;2022-09-29T04:13:17;28.70;30.50
21085;DHT22;34247;50.064;19.970;2022-09-29T04:14:22;28.70;30.50
21085;DHT22;34247;50.064;19.970;2022-09-29T04:15:26;28.70;30.40
21085;DHT22;34247;50.064;19.970;2022-09-29T04:16:29;28.70;30.50
21085;DHT22;34247;50.064;19.970;2022-09-29T04:17:33;28.70;30.50
21085;DHT22;34247;50.064;19.970;2022-09-29T04:18:37;28.70;30.50
21085;DHT22;34247;50.064;19.970;2022-09-29T04:19:40;28.70;30.50
21085;DHT22;34247;50.064;19.970;2022-09-29T04:20:44;28.70;30.30
21085;DHT22;34247;50.064;19.970;2022-09-29T04:21:48;28.60;30.10
21085;DHT22;34247;50.064;19.970;2022-09-29T04:22:52;28.70;30.10
21085;DHT22;34247;50.064;19.970;2022-09-29T04:23:56;28.70;30.10
21085;DHT22;34247;50.064;19.970;2022-09-29T04:25:00;28.70;30.10
21085;DHT22;34247;50.064;19.970;2022-09-29T04:26:04;28.70;30.10
21085;DHT22;34247;50.064;19.970;2022-09-29T04:27:08;28.60;30.10
21085;DHT22;34247;50.064;19.970;2022-09-29T04:28:12;28.60;30.20
21085;DHT22;34247;50.064;19.970;2022-09-29T04:29:16;28.60;30.20
21085;DHT22;34247;50.064;19.970;2022-09-29T04:30:20;28.60;30.20
21085;DHT22;34247;50.064;19.970;2022-09-29T04:31:23;28.60;30.10
21085;DHT22;34247;50.064;19.970;2022-09-29T04:32:27;28.60;30.20
21085;DHT22;34247;50.064;19.970;2022-09-29T04:33:31;28.60;30.30
21085;DHT22;34247;50.064;19.970;2022-09-29T04:34:35;28.60;30.50
21085;DHT22;34247;50.064;19.970;2022-09-29T04:35:39;28.60;30.50
21085;DHT22;34247;50.064;19.970;2022-09-29T04:36:43;28.60;30.40
21085;DHT22;34247;50.064;19.970;2022-09-29T04:37:46;28.60;30.30
21085;DHT22;34247;50.064;19.970;2022-09-29T04:38:50;28.60;30.30
21085;DHT22;34247;50.064;19.970;2022-09-29T04:39:54;28.60;30.30
21085;DHT22;34247;50.064;19.970;2022-09-29T04:40:57;28.50;30.30
21085;DHT22;34247;50.064;19.970;2022-09-29T04:42:01;28.50;30.30
21085;DHT22;34247;50.064;19.970;2022-09-29T04:43:05;28.50;30.40
21085;DHT22;34247;50.064;19.970;2022-09-29T04:44:09;28.50;30.50
21085;DHT22;34247;50.064;19.970;2022-09-29T04:45:13;28.50;30.50
21085;DHT22;34247;50.064;19.970;2022-09-29T04:46:17;28.50;30.60
21085;DHT22;34247;50.064;19.970;2022-09-29T04:47:21;28.50;30.60
21085;DHT22;34247;50.064;19.970;2022-09-29T04:48:25;28.50;30.50
21085;DHT22;34247;50.064;19.970;2022-09-29T04:49:28;28.50;30.50
21085;DHT22;34247;50.064;19.970;2022-09-29T04:50:33;28.50;30.60
21085;DHT22;34247;50.064;19.970;2022-09-29T04:51:37;28.50;30.60
21085;DHT22;34247;50.064;19.970;2022-09-29T04:52:44;28.40;30.60
21085;DHT22;34247;50.064;19.970;2022-09-29T04:53:48;28.50;30.80
21085;DHT22;34247;50.064;19.970;2022-09-29T04:54:51;28.50;30.90
21085;DHT22;34247;50.064;19.970;2022-09-29T04:55:55;28.50;30.80
21085;DHT22;34247;50.064;19.970;2022-09-29T04:56:58;28.40;30.80
21085;DHT22;34247;50.064;19.970;2022-09-29T04:58:03;28.50;30.80
21085;DHT22;34247;50.064;19.970;2022-09-29T04:59:08;28.50;30.80
21085;DHT22;34247;50.064;19.970;2022-09-29T05:00:13;28.50;30.80
21085;DHT22;34247;50.064;19.970;2022-09-29T05:01:17;28.50;30.80
21085;DHT22;34247;50.064;19.970;2022-09-29T05:02:21;28.50;30.80
21085;DHT22;34247;50.064;19.970;2022-09-29T05:03:25;28.50;30.80
21085;DHT22;34247;50.064;19.970;2022-09-29T05:04:28;28.50;30.90
21085;DHT22;34247;50.064;19.970;2022-09-29T05:05:33;28.50;30.90
21085;DHT22;34247;50.064;19.970;2022-09-29T05:06:36;28.50;30.90
21085;DHT22;34247;50.064;19.970;2022-09-29T05:07:41;28.40;30.90
21085;DHT22;34247;50.064;19.970;2022-09-29T05:08:46;28.40;31.00
21085;DHT22;34247;50.064;19.970;2022-09-29T05:09:51;28.40;30.90
21085;DHT22;34247;50.064;19.970;2022-09-29T05:10:54;28.40;31.00
21085;DHT22;34247;50.064;19.970;2022-09-29T05:11:58;28.40;31.00
21085;DHT22;34247;50.064;19.970;2022-09-29T05:13:01;28.40;31.00
21085;DHT22;34247;50.064;19.970;2022-09-29T05:14:05;28.40;31.00
21085;DHT22;34247;50.064;19.970;2022-09-29T05:15:09;28.40;31.00
21085;DHT22;34247;50.064;19.970;2022-09-29T05:16:13;28.40;31.10
21085;DHT22;34247;50.064;19.970;2022-09-29T05:17:20;28.40;31.10
21085;DHT22;34247;50.064;19.970;2022-09-29T05:18:24;28.40;31.10
21085;DHT22;34247;50.064;19.970;2022-09-29T05:19:28;28.50;30.90
21085;DHT22;34247;50.064;19.970;2022-09-29T05:20:34;28.50;30.70
21085;DHT22;34247;50.064;19.970;2022-09-29T05:21:46;28.40;30.60
21085;DHT22;34247;50.064;19.970;2022-09-29T05:22:50;28.40;31.40
21085;DHT22;34247;50.064;19.970;2022-09-29T05:23:54;28.40;30.90
21085;DHT22;34247;50.064;19.970;2022-09-29T05:24:58;28.40;31.10
21085;DHT22;34247;50.064;19.970;2022-09-29T05:26:05;28.40;31.10
21085;DHT22;34247;50.064;19.970;2022-09-29T05:27:11;28.40;31.20
21085;DHT22;34247;50.064;19.970;2022-09-29T05:28:14;28.40;31.30
21085;DHT22;34247;50.064;19.970;2022-09-29T05:29:18;28.40;31.30
21085;DHT22;34247;50.064;19.970;2022-09-29T05:30:22;28.40;31.40
21085;DHT22;34247;50.064;19.970;2022-09-29T05:31:25;28.50;31.40
21085;DHT22;34247;50.064;19.970;2022-09-29T05:32:29;28.50;31.40
21085;DHT22;34247;50.064;19.970;2022-09-29T05:33:33;28.40;31.30
21085;DHT22;34247;50.064;19.970;2022-09-29T05:34:38;28.50;31.30
21085;DHT22;34247;50.064;19.970;2022-09-29T05:35:42;28.50;31.10
21085;DHT22;34247;50.064;19.970;2022-09-29T05:36:45;28.50;31.10
21085;DHT22;34247;50.064;19.970;2022-09-29T05:37:49;28.50;31.00
21085;DHT22;34247;50.064;19.970;2022-09-29T05:38:53;28.40;30.90
21085;DHT22;34247;50.064;19.970;2022-09-29T05:39:58;28.50;31.00
21085;DHT22;34247;50.064;19.970;2022-09-29T05:41:09;28.50;31.00
21085;DHT22;34247;50.064;19.970;2022-09-29T05:42:15;28.50;30.90
21085;DHT22;34247;50.064;19.970;2022-09-29T05:43:19;28.50;31.00
21085;DHT22;34247;50.064;19.970;2022-09-29T05:44:23;28.50;30.90
21085;DHT22;34247;50.064;19.970;2022-09-29T05:45:27;28.50;31.00
21085;DHT22;34247;50.064;19.970;2022-09-29T05:46:34;28.50;31.00
21085;DHT22;34247;50.064;19.970;2022-09-29T05:47:41;28.50;31.00
21085;DHT22;34247;50.064;19.970;2022-09-29T05:48:46;28.50;31.00
21085;DHT22;34247;50.064;19.970;2022-09-29T05:49:50;28.50;31.10
21085;DHT22;34247;50.064;19.970;2022-09-29T05:50:55;28.50;31.00
21085;DHT22;34247;50.064;19.970;2022-09-29T05:51:59;28.50;30.90
21085;DHT22;34247;50.064;19.970;2022-09-29T05:53:03;28.50;30.90
21085;DHT22;34247;50.064;19.970;2022-09-29T05:54:07;28.50;30.90
21085;DHT22;34247;50.064;19.970;2022-09-29T05:55:10;28.50;30.90
21085;DHT22;34247;50.064;19.970;2022-09-29T05:56:20;28.50;30.90
21085;DHT22;34247;50.064;19.970;2022-09-29T05:57:26;28.50;30.90
21085;DHT22;34247;50.064;19.970;2022-09-29T05:58:30;28.50;30.80
21085;DHT22;34247;50.064;19.970;2022-09-29T05:59:33;28.50;30.80
21085;DHT22;34247;50.064;19.970;2022-09-29T06:00:37;28.50;30.80
21085;DHT22;34247;50.064;19.970;2022-09-29T06:01:41;28.50;30.70
21085;DHT22;34247;50.064;19.970;2022-09-29T06:02:45;28.50;30.70
21085;DHT22;34247;50.064;19.970;2022-09-29T06:03:49;28.50;30.50
21085;DHT22;34247;50.064;19.970;2022-09-29T06:04:53;28.50;30.60
21085;DHT22;34247;50.064;19.970;2022-09-29T06:05:57;28.50;30.60
21085;DHT22;34247;50.064;19.970;2022-09-29T06:07:01;28.50;30.60
21085;DHT22;34247;50.064;19.970;2022-09-29T06:08:05;28.50;30.60
21085;DHT22;34247;50.064;19.970;2022-09-29T06:09:10;28.50;30.50
21085;DHT22;34247;50.064;19.970;2022-09-29T06:10:15;28.50;30.60
21085;DHT22;34247;50.064;19.970;2022-09-29T06:11:23;28.50;30.70
21085;DHT22;34247;50.064;19.970;2022-09-29T06:12:36;28.60;30.70
21085;DHT22;34247;50.064;19.970;2022-09-29T06:13:42;28.50;30.70
21085;DHT22;34247;50.064;19.970;2022-09-29T06:14:47;28.50;30.70
21085;DHT22;34247;50.064;19.970;2022-09-29T06:15:51;28.60;30.70
21085;DHT22;34247;50.064;19.970;2022-09-29T06:16:55;28.50;30.70
21085;DHT22;34247;50.064;19.970;2022-09-29T06:17:58;28.50;30.60
21085;DHT22;34247;50.064;19.970;2022-09-29T06:19:03;28.50;30.60
21085;DHT22;34247;50.064;19.970;2022-09-29T06:20:08;28.50;30.60
21085;DHT22;34247;50.064;19.970;2022-09-29T06:21:19;28.50;31.20
21085;DHT22;34247;50.064;19.970;2022-09-29T06:22:58;28.60;30.50
21085;DHT22;34247;50.064;19.970;2022-09-29T06:24:07;28.60;30.50
21085;DHT22;34247;50.064;19.970;2022-09-29T07:13:42;28.70;30.60
21085;DHT22;34247;50.064;19.970;2022-09-29T07:14:46;28.70;30.80
21085;DHT22;34247;50.064;19.970;2022-09-29T07:15:51;28.70;30.80
21085;DHT22;34247;50.064;19.970;2022-09-29T07:16:59;28.70;30.90
21085;DHT22;34247;50.064;19.970;2022-09-29T07:18:04;28.70;30.80
21085;DHT22;34247;50.064;19.970;2022-09-29T07:19:17;28.70;30.60
21085;DHT22;34247;50.064;19.970;2022-09-29T07:20:24;28.70;30.30
21085;DHT22;34247;50.064;19.970;2022-09-29T07:21:32;28.70;30.30
21085;DHT22;34247;50.064;19.970;2022-09-29T07:22:37;28.70;30.10
21085;DHT22;34247;50.064;19.970;2022-09-29T07:23:59;28.70;30.20
21085;DHT22;34247;50.064;19.970;2022-09-29T07:25:06;28.70;30.10
21085;DHT22;34247;50.064;19.970;2022-09-29T07:26:10;28.70;30.00
21085;DHT22;34247;50.064;19.970;2022-09-29T07:27:17;28.70;30.00
21085;DHT22;34247;50.064;19.970;2022-09-29T07:28:27;28.70;30.00
21085;DHT22;34247;50.064;19.970;2022-09-29T07:29:31;28.70;30.00
21085;DHT22;34247;50.064;19.970;2022-09-29T07:30:38;28.70;29.90
21085;DHT22;34247;50.064;19.970;2022-09-29T07:31:44;28.70;29.90
21085;DHT22;34247;50.064;19.970;2022-09-29T07:32:54;28.70;29.90
21085;DHT22;34247;50.064;19.970;2022-09-29T07:34:05;28.70;29.90
21085;DHT22;34247;50.064;19.970;2022-09-29T07:35:08;28.70;30.00
21085;DHT22;34247;50.064;19.970;2022-09-29T07:36:14;28.70;30.00
21085;DHT22;34247;50.064;19.970;2022-09-29T07:37:19;28.70;30.00
21085;DHT22;34247;50.064;19.970;2022-09-29T07:38:23;28.70;30.10
21085;DHT22;34247;50.064;19.970;2022-09-29T07:39:28;28.70;30.10
21085;DHT22;34247;50.064;19.970;2022-09-29T07:40:31;28.80;30.20
21085;DHT22;34247;50.064;19.970;2022-09-29T07:41:36;28.80;30.00
21085;DHT22;34247;50.064;19.970;2022-09-29T07:42:40;28.80;30.00
21085;DHT22;34247;50.064;19.970;2022-09-29T07:43:45;28.80;29.90
21085;DHT22;34247;50.064;19.970;2022-09-29T07:44:50;28.80;29.90
21085;DHT22;34247;50.064;19.970;2022-09-29T07:45:54;28.80;29.90
21085;DHT22;34247;50.064;19.970;2022-09-29T07:46:59;28.80;29.90
21085;DHT22;34247;50.064;19.970;2022-09-29T07:48:03;28.80;29.90
21085;DHT22;34247;50.064;19.970;2022-09-29T07:49:08;28.80;30.00
21085;DHT22;34247;50.064;19.970;2022-09-29T07:50:12;28.80;30.00
21085;DHT22;34247;50.064;19.970;2022-09-29T07:51:23;28.80;30.00
21085;DHT22;34247;50.064;19.970;2022-09-29T07:52:28;28.80;30.00
21085;DHT22;34247;50.064;19.970;2022-09-29T07:53:32;28.80;29.80
21085;DHT22;34247;50.064;19.970;2022-09-29T07:54:37;28.80;29.80
21085;DHT22;34247;50.064;19.970;2022-09-29T07:55:40;28.90;29.90
21085;DHT22;34247;50.064;19.970;2022-09-29T07:56:44;28.80;29.80
21085;DHT22;34247;50.064;19.970;2022-09-29T07:57:48;28.90;29.90
21085;DHT22;34247;50.064;19.970;2022-09-29T07:58:54;28.90;29.80
21085;DHT22;34247;50.064;19.970;2022-09-29T07:59:59;28.90;29.80
21085;DHT22;34247;50.064;19.970;2022-09-29T08:01:05;28.90;29.90
21085;DHT22;34247;50.064;19.970;2022-09-29T08:02:13;28.90;30.00
21085;DHT22;34247;50.064;19.970;2022-09-29T08:03:32;28.90;30.00
21085;DHT22;34247;50.064;19.970;2022-09-29T08:04:39;28.90;30.10
21085;DHT22;34247;50.064;19.970;2022-09-29T08:05:43;28.90;30.20
21085;DHT22;34247;50.064;19.970;2022-09-29T08:06:47;28.90;30.30
21085;DHT22;34247;50.064;19.970;2022-09-29T08:07:51;28.90;30.20
21085;DHT22;34247;50.064;19.970;2022-09-29T08:08:55;28.90;30.70
21085;DHT22;34247;50.064;19.970;2022-09-29T08:10:07;28.90;30.00
21085;DHT22;34247;50.064;19.970;2022-09-29T08:11:19;28.90;30.00
21085;DHT22;34247;50.064;19.970;2022-09-29T08:12:33;28.90;30.00
21085;DHT22;34247;50.064;19.970;2022-09-29T08:13:47;28.90;30.00
21085;DHT22;34247;50.064;19.970;2022-09-29T08:14:53;28.90;30.10
21085;DHT22;34247;50.064;19.970;2022-09-29T08:16:00;28.90;30.30
21085;DHT22;34247;50.064;19.970;2022-09-29T08:17:05;28.90;30.40
21085;DHT22;34247;50.064;19.970;2022-09-29T08:18:09;28.90;30.30
21085;DHT22;34247;50.064;19.970;2022-09-29T08:19:13;28.90;30.80
21085;DHT22;34247;50.064;19.970;2022-09-29T08:20:17;28.90;30.00
21085;DHT22;34247;50.064;19.970;2022-09-29T08:21:21;28.90;30.10
21085;DHT22;34247;50.064;19.970;2022-09-29T08:22:25;28.90;30.20
21085;DHT22;34247;50.064;19.970;2022-09-29T08:23:28;29.00;30.20
21085;DHT22;34247;50.064;19.970;2022-09-29T08:24:34;29.00;30.30
21085;DHT22;34247;50.064;19.970;2022-09-29T08:25:39;29.00;30.30
21085;DHT22;34247;50.064;19.970;2022-09-29T08:26:50;29.00;30.30
21085;DHT22;34247;50.064;19.970;2022-09-29T08:27:54;29.00;30.30
21085;DHT22;34247;50.064;19.970;2022-09-29T08:28:58;29.00;30.50
21085;DHT22;34247;50.064;19.970;2022-09-29T08:30:11;29.00;30.50
21085;DHT22;34247;50.064;19.970;2022-09-29T08:31:18;29.00;30.30
21085;DHT22;34247;50.064;19.970;2022-09-29T08:32:23;29.10;29.50
21085;DHT22;34247;50.064;19.970;2022-09-29T08:33:27;29.10;29.40
21085;DHT22;34247;50.064;19.970;2022-09-29T08:34:31;29.00;29.40
21085;DHT22;34247;50.064;19.970;2022-09-29T08:35:35;29.00;29.50